Terminal Aerodrome Forecast
Issued by NWS

Home | Current Version | Previous Version | Text Only | Print | Product List | Glossary On
Versions: 1 2 3 4 5 6 7 8 9 10 11 12 13 14 15 16
813
FTUS42 KGSP 242320
TAFAND
TAF
KAND 242320Z 2500/2524 VRB02KT P6SM FEW250
     FM251600 24006KT P6SM SCT150 BKN250=

USA.gov is the U.S. government's official web portal to all federal, state and local government web resources and services.